Time;durP1;ratioP1;P1;durP2;ratioP2;P2;SDS_P1;SDS_P2;PMS_P1;PMS_P2;Temp;Humidity;BMP_temperature;BMP_pressure;BME280_temperature;BME280_humidity;BME280_pressure;Samples;Min_cycle;Max_cycle;Signal;HPM_P1;HPM_P2
2023/09/13 00:02:10;;;;;;;35.40;33.80;;;25.60;99.90;;;;;;5051101;28;20484;-61
2023/09/13 00:04:37;;;;;;;37.77;36.03;;;25.60;99.90;;;;;;5050950;28;20483;-60
2023/09/13 00:07:04;;;;;;;36.13;34.13;;;25.60;99.90;;;;;;5051376;28;20978;-61
2023/09/13 00:09:31;;;;;;;37.57;35.77;;;25.60;99.90;;;;;;5051489;28;20546;-61
2023/09/13 00:11:58;;;;;;;38.03;36.33;;;25.60;99.90;;;;;;5051096;28;20512;-58
2023/09/13 00:14:25;;;;;;;35.63;34.13;;;25.60;99.90;;;;;;5051110;28;20452;-58
2023/09/13 00:16:53;;;;;;;36.67;35.07;;;25.50;99.90;;;;;;5051327;28;20494;-60
2023/09/13 00:19:20;;;;;;;36.30;34.50;;;25.60;99.90;;;;;;5051262;28;20472;-61
2023/09/13 00:21:48;;;;;;;36.40;34.80;;;25.60;99.90;;;;;;5051401;28;20468;-63
2023/09/13 00:24:15;;;;;;;35.67;34.17;;;25.60;99.90;;;;;;5050961;28;20448;-63
2023/09/13 00:26:42;;;;;;;35.53;33.70;;;25.60;99.90;;;;;;5051190;28;20464;-62
2023/09/13 00:29:08;;;;;;;36.70;35.10;;;25.60;99.90;;;;;;5051183;28;20472;-63
2023/09/13 00:31:35;;;;;;;35.90;34.20;;;25.60;99.90;;;;;;5050951;28;20575;-63
2023/09/13 00:34:04;;;;;;;38.17;36.20;;;25.60;99.90;;;;;;5050730;28;20504;-61
2023/09/13 00:36:31;;;;;;;36.83;35.03;;;25.60;99.90;;;;;;5051146;28;20479;-58
2023/09/13 00:38:58;;;;;;;36.43;34.63;;;25.60;99.90;;;;;;5051159;28;20471;-60
2023/09/13 00:41:25;;;;;;;35.17;33.53;;;25.60;99.90;;;;;;5052793;28;20501;-59
2023/09/13 00:43:52;;;;;;;35.37;33.87;;;25.60;99.90;;;;;;5055007;28;20496;-59
2023/09/13 00:46:19;;;;;;;37.10;35.30;;;25.60;99.90;;;;;;5055275;28;20444;-60
2023/09/13 00:48:46;;;;;;;35.50;33.80;;;25.60;99.90;;;;;;5055162;28;20479;-59
2023/09/13 00:51:15;;;;;;;36.40;34.53;;;25.50;99.90;;;;;;5054720;28;20526;-61
2023/09/13 00:53:42;;;;;;;37.13;35.33;;;25.50;99.90;;;;;;5054436;28;20496;-63
2023/09/13 00:56:11;;;;;;;35.63;33.93;;;25.50;99.90;;;;;;5055115;28;20862;-62
2023/09/13 00:58:39;;;;;;;36.23;34.23;;;25.50;99.90;;;;;;5047053;28;20444;-64
2023/09/13 01:01:06;;;;;;;38.63;36.70;;;25.50;99.90;;;;;;5054941;28;20482;-63
2023/09/13 01:03:33;;;;;;;37.43;35.63;;;25.40;99.90;;;;;;5054189;28;20491;-63
2023/09/13 01:06:01;;;;;;;35.17;33.57;;;25.40;99.90;;;;;;5055057;28;20446;-63
2023/09/13 01:08:29;;;;;;;36.03;34.27;;;25.40;99.90;;;;;;5054796;28;20569;-63
2023/09/13 01:10:56;;;;;;;36.73;35.13;;;25.40;99.90;;;;;;5054676;28;20559;-63
2023/09/13 01:13:23;;;;;;;37.00;35.30;;;25.40;99.90;;;;;;5053716;28;20500;-63
2023/09/13 01:16:01;;;;;;;35.53;33.93;;;25.40;99.90;;;;;;5054678;28;20853;-63
2023/09/13 01:18:35;;;;;;;36.00;34.10;;;25.40;99.90;;;;;;5054581;28;20443;-62
2023/09/13 01:21:19;;;;;;;36.07;34.40;;;25.40;99.90;;;;;;5054669;28;20970;-63
2023/09/13 01:24:14;;;;;;;36.07;34.47;;;25.40;99.90;;;;;;5047409;28;20862;-63
2023/09/13 01:26:55;;;;;;;34.83;33.33;;;25.30;99.90;;;;;;5045171;28;20472;-62
2023/09/13 01:29:25;;;;;;;36.50;34.70;;;25.30;99.90;;;;;;5053961;28;20479;-63
2023/09/13 01:31:52;;;;;;;36.20;34.60;;;25.30;99.90;;;;;;5053749;28;20511;-61
2023/09/13 01:34:19;;;;;;;39.50;37.50;;;25.20;99.90;;;;;;5054243;28;20475;-63
2023/09/13 01:36:46;;;;;;;36.50;34.83;;;25.20;99.90;;;;;;5054212;28;20479;-62
2023/09/13 01:39:13;;;;;;;36.00;34.30;;;25.20;99.90;;;;;;5053676;28;20529;-62
2023/09/13 01:41:45;;;;;;;37.67;35.67;;;25.20;99.90;;;;;;5054082;28;20467;-63
2023/09/13 01:44:13;;;;;;;36.60;34.77;;;25.20;99.90;;;;;;5053833;28;20479;-60
2023/09/13 01:46:45;;;;;;;36.53;34.87;;;25.20;99.90;;;;;;5054183;28;20480;-63
2023/09/13 01:49:13;;;;;;;38.33;36.53;;;25.20;99.90;;;;;;5053668;28;20916;-62
2023/09/13 01:51:41;;;;;;;37.60;35.90;;;25.20;99.90;;;;;;5045700;28;20479;-63
2023/09/13 01:54:08;;;;;;;36.10;34.30;;;25.20;99.90;;;;;;5052893;28;20484;-62
2023/09/13 01:56:34;;;;;;;39.47;37.37;;;25.20;99.90;;;;;;5053846;28;20470;-63
2023/09/13 01:59:01;;;;;;;37.90;35.73;;;25.20;99.90;;;;;;5053542;28;21006;-63
2023/09/13 02:01:28;;;;;;;38.07;36.10;;;25.20;99.90;;;;;;5053650;28;20432;-63
2023/09/13 02:03:56;;;;;;;37.37;35.50;;;25.20;99.90;;;;;;5053465;28;20986;-63
2023/09/13 02:06:23;;;;;;;37.40;35.70;;;25.20;99.90;;;;;;5053601;28;20480;-63
2023/09/13 02:08:51;;;;;;;40.70;38.50;;;25.20;99.90;;;;;;5053451;28;20533;-62
2023/09/13 02:11:18;;;;;;;41.77;39.37;;;25.20;99.90;;;;;;5053156;28;20822;-62
2023/09/13 02:13:46;;;;;;;39.67;37.67;;;25.20;99.90;;;;;;5053435;28;20468;-63
2023/09/13 02:16:13;;;;;;;39.23;37.13;;;25.20;99.90;;;;;;5053529;28;20440;-63
2023/09/13 02:18:39;;;;;;;41.40;39.13;;;25.10;99.90;;;;;;5045233;28;20487;-63
2023/09/13 02:21:09;;;;;;;39.43;37.43;;;25.10;99.90;;;;;;5053352;28;20479;-62
2023/09/13 02:23:36;;;;;;;42.00;39.60;;;25.20;99.90;;;;;;5053591;28;20460;-63
2023/09/13 02:26:04;;;;;;;42.27;39.67;;;25.10;99.90;;;;;;5053458;28;20475;-63
2023/09/13 02:28:32;;;;;;;40.57;38.07;;;25.10;99.90;;;;;;5053055;28;20518;-63
2023/09/13 02:30:59;;;;;;;40.57;38.17;;;25.00;99.90;;;;;;5053028;28;20471;-62
2023/09/13 02:33:26;;;;;;;42.63;40.10;;;25.00;99.90;;;;;;5052850;28;20518;-63
2023/09/13 02:35:52;;;;;;;39.80;37.00;;;25.00;99.90;;;;;;5053176;28;20575;-62
2023/09/13 02:38:21;;;;;;;38.70;36.30;;;25.00;99.90;;;;;;5052598;28;20488;-63
2023/09/13 02:40:48;;;;;;;38.97;36.67;;;25.00;99.90;;;;;;5045915;28;20963;-62
2023/09/13 02:43:14;;;;;;;39.30;36.87;;;25.00;99.90;;;;;;5052598;28;20467;-61
2023/09/13 02:45:41;;;;;;;38.00;35.80;;;25.00;99.90;;;;;;5053098;28;20472;-63
2023/09/13 02:48:08;;;;;;;38.77;36.63;;;25.00;99.90;;;;;;5052825;28;20480;-63
2023/09/13 02:50:35;;;;;;;39.07;36.60;;;25.00;99.90;;;;;;5052737;28;20472;-63
2023/09/13 02:53:03;;;;;;;39.47;37.07;;;25.00;99.90;;;;;;5052546;28;20531;-63
2023/09/13 02:55:31;;;;;;;39.23;37.10;;;25.00;99.90;;;;;;5052854;28;20502;-62
2023/09/13 02:57:58;;;;;;;37.97;35.77;;;25.00;99.90;;;;;;5052505;28;20523;-63
2023/09/13 03:00:25;;;;;;;36.50;34.47;;;25.00;99.90;;;;;;5052293;28;20868;-61
2023/09/13 03:02:51;;;;;;;38.40;35.90;;;24.90;99.90;;;;;;5052312;28;20488;-62
2023/09/13 03:05:19;;;;;;;38.23;35.93;;;25.00;99.90;;;;;;5052108;28;20479;-62
2023/09/13 03:07:45;;;;;;;41.57;38.57;;;24.90;99.90;;;;;;5052690;28;20810;-62
2023/09/13 03:10:12;;;;;;;40.83;38.23;;;24.90;99.90;;;;;;5052612;28;20472;-62
2023/09/13 03:12:41;;;;;;;35.93;33.93;;;24.90;99.90;;;;;;5051618;28;20507;-62
2023/09/13 03:15:08;;;;;;;38.60;36.07;;;24.90;99.90;;;;;;5052547;28;20468;-63
2023/09/13 03:17:35;;;;;;;38.47;36.17;;;24.90;99.90;;;;;;5052132;28;20484;-63
2023/09/13 03:20:02;;;;;;;39.13;36.43;;;24.90;99.90;;;;;;5052339;28;20484;-63
2023/09/13 03:22:29;;;;;;;38.13;35.80;;;25.00;99.90;;;;;;5051683;28;20495;-63
2023/09/13 03:24:56;;;;;;;39.67;37.40;;;24.90;99.90;;;;;;5052333;28;20943;-62
2023/09/13 03:27:22;;;;;;;40.60;38.00;;;25.00;99.90;;;;;;5051746;28;20471;-62
2023/09/13 03:29:51;;;;;;;39.53;37.10;;;25.00;99.90;;;;;;5052145;28;20471;-62
2023/09/13 03:32:18;;;;;;;38.87;36.70;;;25.00;99.90;;;;;;5051576;28;20488;-62
2023/09/13 03:34:45;;;;;;;39.77;37.47;;;25.00;99.90;;;;;;5052007;28;20474;-62
2023/09/13 03:37:11;;;;;;;40.93;38.43;;;25.00;99.90;;;;;;5051471;28;21007;-61
2023/09/13 03:39:38;;;;;;;40.60;38.20;;;25.00;99.90;;;;;;5051555;28;20982;-63
2023/09/13 03:42:05;;;;;;;42.07;39.20;;;25.00;99.90;;;;;;5046739;28;20472;-62
2023/09/13 03:44:32;;;;;;;41.63;38.80;;;24.90;99.90;;;;;;5051843;28;20439;-63
2023/09/13 03:47:01;;;;;;;41.93;39.33;;;24.90;99.90;;;;;;5051676;28;20468;-63
2023/09/13 03:49:27;;;;;;;42.30;39.80;;;24.90;99.90;;;;;;5051676;28;20468;-61
2023/09/13 03:51:54;;;;;;;41.20;38.70;;;24.90;99.90;;;;;;5051346;28;20499;-62
2023/09/13 03:54:21;;;;;;;39.67;36.97;;;24.90;99.90;;;;;;5051505;28;20490;-63
2023/09/13 03:56:48;;;;;;;41.47;38.77;;;24.90;99.90;;;;;;5051292;28;20472;-62
2023/09/13 03:59:15;;;;;;;41.87;38.90;;;24.90;99.90;;;;;;5051589;28;20472;-63
2023/09/13 04:01:42;;;;;;;46.53;43.73;;;24.90;99.90;;;;;;5051398;28;20464;-62
2023/09/13 04:04:10;;;;;;;45.10;42.17;;;24.90;99.90;;;;;;5051371;28;20910;-63
2023/09/13 04:06:39;;;;;;;43.90;41.20;;;24.90;99.90;;;;;;5051657;28;20529;-62
2023/09/13 04:09:06;;;;;;;42.27;39.40;;;24.90;99.90;;;;;;5050930;28;21168;-55
2023/09/13 04:11:33;;;;;;;42.47;39.80;;;24.90;99.90;;;;;;5051160;28;20512;-56
2023/09/13 04:14:00;;;;;;;43.17;40.70;;;24.90;99.90;;;;;;5051163;28;20492;-59
2023/09/13 04:16:27;;;;;;;44.30;41.63;;;24.90;99.90;;;;;;5050846;28;20445;-56
2023/09/13 04:18:54;;;;;;;45.53;42.93;;;24.90;99.90;;;;;;5050977;28;20479;-60
2023/09/13 04:21:22;;;;;;;45.97;43.20;;;25.00;99.90;;;;;;5051111;28;20440;-59
2023/09/13 04:23:49;;;;;;;43.83;41.20;;;25.00;99.90;;;;;;5050850;28;20503;-58
2023/09/13 04:26:21;;;;;;;43.23;40.63;;;25.00;99.90;;;;;;5051285;28;20464;-56
2023/09/13 04:28:48;;;;;;;44.60;41.90;;;25.00;99.90;;;;;;5051143;28;20452;-56
2023/09/13 04:31:15;;;;;;;43.37;40.97;;;25.00;99.90;;;;;;5051235;28;20495;-57
2023/09/13 04:33:49;;;;;;;43.83;41.43;;;25.00;99.90;;;;;;5050812;28;20511;-58
2023/09/13 04:36:16;;;;;;;43.97;40.63;;;25.00;99.90;;;;;;5051472;28;20464;-59
2023/09/13 04:38:44;;;;;;;48.37;44.07;;;25.00;99.90;;;;;;5050614;28;20475;-60
2023/09/13 04:41:14;;;;;;;47.17;43.40;;;25.00;99.90;;;;;;5051066;28;20464;-55
2023/09/13 04:43:41;;;;;;;47.00;43.10;;;25.00;99.90;;;;;;5050943;28;20805;-58
2023/09/13 04:46:08;;;;;;;47.00;43.03;;;25.10;99.90;;;;;;5050716;28;20476;-56
2023/09/13 04:48:35;;;;;;;48.13;44.27;;;25.10;99.90;;;;;;5050963;28;20868;-60
2023/09/13 04:51:04;;;;;;;46.30;42.57;;;25.10;99.90;;;;;;5051120;28;20475;-58
2023/09/13 04:53:31;;;;;;;51.80;47.33;;;25.10;99.90;;;;;;5050559;28;20562;-61
2023/09/13 04:56:01;;;;;;;48.53;44.93;;;25.00;99.90;;;;;;5050802;28;20873;-58
2023/09/13 04:58:29;;;;;;;49.77;45.87;;;25.00;99.90;;;;;;5050838;28;20918;-61
2023/09/13 05:00:55;;;;;;;44.70;41.40;;;25.00;99.90;;;;;;5050288;28;20940;-62
2023/09/13 05:03:22;;;;;;;43.60;40.17;;;25.00;99.90;;;;;;5050734;28;20495;-63
2023/09/13 05:05:49;;;;;;;45.20;41.73;;;25.00;99.90;;;;;;5050974;28;20503;-62
2023/09/13 05:08:16;;;;;;;46.27;42.77;;;25.00;99.90;;;;;;5050730;28;20502;-61
2023/09/13 05:10:44;;;;;;;42.70;39.80;;;25.10;99.90;;;;;;5050384;28;20789;-64
2023/09/13 05:13:13;;;;;;;45.80;42.80;;;25.10;99.90;;;;;;5050617;28;20515;-64
2023/09/13 05:15:44;;;;;;;45.13;42.27;;;25.10;99.90;;;;;;5050562;28;20582;-64
2023/09/13 05:18:11;;;;;;;43.73;40.93;;;25.10;99.90;;;;;;5050715;28;20447;-61
2023/09/13 05:20:37;;;;;;;44.17;41.10;;;25.10;99.90;;;;;;5050611;28;20864;-62
2023/09/13 05:23:05;;;;;;;46.97;44.17;;;25.10;99.90;;;;;;5050170;28;20499;-63
2023/09/13 05:25:33;;;;;;;47.63;44.17;;;25.10;99.90;;;;;;5050523;28;20440;-66
2023/09/13 05:28:00;;;;;;;43.40;40.73;;;25.20;99.90;;;;;;5053277;28;20444;-64
2023/09/13 05:30:32;;;;;;;44.07;41.23;;;25.20;99.90;;;;;;5054150;28;20442;-61
2023/09/13 05:32:59;;;;;;;45.23;42.37;;;25.20;99.90;;;;;;5053927;28;20484;-64
2023/09/13 05:35:26;;;;;;;44.20;41.37;;;25.20;99.90;;;;;;5054060;28;20476;-62
2023/09/13 05:37:53;;;;;;;44.43;41.43;;;25.20;99.90;;;;;;5054271;28;20535;-64
2023/09/13 05:40:20;;;;;;;43.97;40.93;;;25.20;99.90;;;;;;5054137;28;20468;-65
2023/09/13 05:42:47;;;;;;;44.80;42.03;;;25.20;99.90;;;;;;5045897;28;20480;-64
2023/09/13 05:45:14;;;;;;;44.13;41.53;;;25.20;99.90;;;;;;5054156;28;20440;-64
2023/09/13 05:47:42;;;;;;;42.80;40.27;;;25.20;99.90;;;;;;5054039;28;20792;-64
2023/09/13 05:50:09;;;;;;;45.80;42.50;;;25.20;99.90;;;;;;5053923;28;20448;-64
2023/09/13 05:52:39;;;;;;;44.10;41.43;;;25.20;99.90;;;;;;5053403;28;20534;-61
2023/09/13 05:55:06;;;;;;;44.37;41.47;;;25.20;99.90;;;;;;5053882;28;20440;-64
2023/09/13 05:57:33;;;;;;;46.23;43.40;;;25.20;99.90;;;;;;5053936;28;20468;-64
2023/09/13 05:59:59;;;;;;;45.60;42.87;;;25.20;99.90;;;;;;5053739;28;20876;-64
2023/09/13 06:02:26;;;;;;;46.93;43.97;;;25.20;99.90;;;;;;5054664;28;20487;-66
2023/09/13 06:04:55;;;;;;;44.07;41.47;;;25.20;99.90;;;;;;5054929;28;20471;-66
2023/09/13 06:07:21;;;;;;;49.80;46.90;;;25.20;99.90;;;;;;5054281;28;20955;-67
2023/09/13 06:09:48;;;;;;;45.07;42.43;;;25.20;99.90;;;;;;5046146;28;20472;-66
2023/09/13 06:12:15;;;;;;;48.50;45.60;;;25.20;99.90;;;;;;5054336;28;20519;-66
2023/09/13 06:14:43;;;;;;;45.23;42.63;;;25.20;99.90;;;;;;5053793;28;20487;-65
2023/09/13 06:17:10;;;;;;;48.30;45.40;;;25.20;99.90;;;;;;5053546;28;20963;-66
2023/09/13 06:19:37;;;;;;;48.20;45.40;;;25.20;99.90;;;;;;5053330;28;20475;-65
2023/09/13 06:22:05;;;;;;;47.83;45.03;;;25.20;99.90;;;;;;5053039;28;20478;-66
2023/09/13 06:24:32;;;;;;;44.70;42.07;;;25.20;99.90;;;;;;5053229;28;20460;-66
2023/09/13 06:26:59;;;;;;;43.20;40.80;;;25.20;99.90;;;;;;5053361;28;20472;-66
2023/09/13 06:29:26;;;;;;;43.57;40.93;;;25.20;99.90;;;;;;5053037;28;20472;-66
2023/09/13 06:31:55;;;;;;;44.53;41.83;;;25.20;99.90;;;;;;5053098;28;20475;-66
2023/09/13 06:34:22;;;;;;;45.17;42.57;;;25.20;99.90;;;;;;5053160;28;20480;-66
2023/09/13 06:36:49;;;;;;;46.70;43.90;;;25.20;99.90;;;;;;5044982;28;20494;-66
2023/09/13 06:39:19;;;;;;;47.00;44.20;;;25.20;99.90;;;;;;5052576;28;20442;-66
2023/09/13 06:41:46;;;;;;;47.60;44.90;;;25.20;99.90;;;;;;5053040;28;20443;-67
2023/09/13 06:44:14;;;;;;;44.83;42.40;;;25.20;99.90;;;;;;5052772;28;20461;-66
2023/09/13 06:46:42;;;;;;;46.73;44.13;;;25.20;99.90;;;;;;5052936;28;20483;-66
2023/09/13 06:49:09;;;;;;;45.50;42.90;;;25.20;99.90;;;;;;5052763;28;20482;-66
2023/09/13 06:51:36;;;;;;;46.73;43.93;;;25.20;99.90;;;;;;5052630;28;20891;-66
2023/09/13 06:54:03;;;;;;;46.10;43.60;;;25.20;99.90;;;;;;5052512;28;20511;-67
2023/09/13 06:56:31;;;;;;;46.23;43.53;;;25.20;99.90;;;;;;5052610;28;20471;-66
2023/09/13 06:58:58;;;;;;;46.00;43.20;;;25.20;99.90;;;;;;5052661;28;20460;-67
2023/09/13 07:01:25;;;;;;;44.90;42.40;;;25.20;99.90;;;;;;5052444;28;20928;-67
2023/09/13 07:03:52;;;;;;;43.70;41.30;;;25.20;99.90;;;;;;5052298;28;20472;-66
2023/09/13 07:06:19;;;;;;;44.70;42.20;;;25.20;99.90;;;;;;5052467;28;20448;-66
2023/09/13 07:08:46;;;;;;;45.87;42.90;;;25.20;99.90;;;;;;5052376;28;20467;-66
2023/09/13 07:11:13;;;;;;;43.83;41.30;;;25.20;99.90;;;;;;5052462;28;20480;-66
2023/09/13 07:13:41;;;;;;;43.00;40.60;;;25.20;99.90;;;;;;5051917;28;20516;-66
2023/09/13 07:16:08;;;;;;;43.43;40.93;;;25.20;99.90;;;;;;5052317;28;20601;-66
2023/09/13 07:18:35;;;;;;;44.03;41.43;;;25.20;99.90;;;;;;5052194;28;20476;-65
2023/09/13 07:21:02;;;;;;;45.20;42.70;;;25.20;99.90;;;;;;5052334;28;20479;-66
2023/09/13 07:23:29;;;;;;;45.53;43.03;;;25.20;99.90;;;;;;5051597;28;20551;-66
2023/09/13 07:25:55;;;;;;;44.10;41.60;;;25.20;99.90;;;;;;5052289;28;20497;-66
2023/09/13 07:28:22;;;;;;;45.50;43.03;;;25.20;99.90;;;;;;5052083;28;20815;-66
2023/09/13 07:30:51;;;;;;;46.60;43.90;;;25.20;99.90;;;;;;5051823;28;20478;-67
2023/09/13 07:33:17;;;;;;;45.73;43.27;;;25.20;99.90;;;;;;5051639;28;20563;-67
2023/09/13 07:35:45;;;;;;;48.13;45.30;;;25.20;99.90;;;;;;5051857;28;20970;-66
2023/09/13 07:38:12;;;;;;;45.43;42.93;;;25.10;99.90;;;;;;5052004;28;20472;-66
2023/09/13 07:40:39;;;;;;;44.37;41.83;;;25.10;99.90;;;;;;5051974;28;20578;-66
2023/09/13 07:43:07;;;;;;;46.10;43.50;;;25.10;99.90;;;;;;5051643;28;20480;-66
2023/09/13 07:45:34;;;;;;;48.13;45.53;;;25.10;99.90;;;;;;5051590;28;20527;-66
2023/09/13 07:48:03;;;;;;;48.40;45.80;;;25.20;99.90;;;;;;5051636;28;20444;-66
2023/09/13 07:50:31;;;;;;;48.90;46.33;;;25.20;99.90;;;;;;5050647;28;20455;-66
2023/09/13 07:52:58;;;;;;;46.53;44.10;;;25.20;99.90;;;;;;5051346;28;21033;-65
2023/09/13 07:55:26;;;;;;;44.80;42.30;;;25.20;99.90;;;;;;5051673;28;20864;-63
2023/09/13 07:57:53;;;;;;;46.77;44.27;;;25.20;99.90;;;;;;5043706;28;20432;-63
2023/09/13 08:00:20;;;;;;;45.40;42.90;;;25.20;99.90;;;;;;5051587;28;20472;-65
2023/09/13 08:02:48;;;;;;;45.60;43.03;;;25.20;99.90;;;;;;5051040;28;20500;-65
2023/09/13 08:05:17;;;;;;;46.10;43.60;;;25.20;99.90;;;;;;5051274;28;20452;-63
2023/09/13 08:07:44;;;;;;;46.57;43.97;;;25.20;99.90;;;;;;5051436;28;20471;-64
2023/09/13 08:10:11;;;;;;;46.77;44.20;;;25.20;99.90;;;;;;5051450;28;20470;-64
2023/09/13 08:12:38;;;;;;;47.97;45.40;;;25.20;99.90;;;;;;5050892;28;20499;-64
2023/09/13 08:15:06;;;;;;;48.27;45.60;;;25.20;99.90;;;;;;5051257;28;20479;-63
2023/09/13 08:17:34;;;;;;;46.20;43.50;;;25.20;99.90;;;;;;5051199;28;20957;-64
2023/09/13 08:20:01;;;;;;;46.80;44.40;;;25.20;99.90;;;;;;5051331;28;20466;-65
2023/09/13 08:22:29;;;;;;;49.33;46.63;;;25.20;99.90;;;;;;5088496;22;21298;-60
2023/09/13 08:24:56;;;;;;;45.67;43.37;;;25.20;99.90;;;;;;5031446;28;21195;-60
2023/09/13 08:27:23;;;;;;;46.17;43.67;;;25.20;99.90;;;;;;5031603;28;20827;-58
2023/09/13 08:29:50;;;;;;;47.60;45.10;;;25.20;99.90;;;;;;5031467;28;20440;-57
2023/09/13 08:32:17;;;;;;;46.20;43.80;;;25.20;99.90;;;;;;5031211;28;20473;-60
2023/09/13 08:34:44;;;;;;;46.80;43.33;;;25.20;99.90;;;;;;5031402;28;20504;-57
2023/09/13 08:37:11;;;;;;;44.37;41.97;;;25.20;99.90;;;;;;5031548;28;20483;-59
2023/09/13 08:39:40;;;;;;;44.10;41.80;;;25.20;99.90;;;;;;5031595;28;20944;-59
2023/09/13 08:42:06;;;;;;;42.83;40.57;;;25.20;99.90;;;;;;5031137;28;20477;-58
2023/09/13 08:44:36;;;;;;;44.53;42.33;;;25.20;99.90;;;;;;5031317;28;20480;-60
2023/09/13 08:47:05;;;;;;;42.17;39.97;;;25.20;99.90;;;;;;5031634;28;20761;-58
2023/09/13 08:49:35;;;;;;;47.50;44.93;;;25.20;99.90;;;;;;5031355;28;20968;-59
2023/09/13 08:52:02;;;;;;;42.97;40.77;;;25.20;99.90;;;;;;5031119;28;20458;-59
2023/09/13 08:54:30;;;;;;;44.20;41.93;;;25.20;99.90;;;;;;5031155;28;20526;-57
2023/09/13 08:56:59;;;;;;;44.67;42.27;;;25.20;99.90;;;;;;5031225;28;20476;-60
2023/09/13 08:59:27;;;;;;;44.37;41.97;;;25.20;99.90;;;;;;5031702;28;20441;-59
2023/09/13 09:01:55;;;;;;;43.70;41.10;;;25.20;99.90;;;;;;5032417;28;20449;-59
2023/09/13 09:04:22;;;;;;;43.97;41.57;;;25.20;99.90;;;;;;5035472;28;20468;-55
2023/09/13 09:06:50;;;;;;;42.47;40.33;;;25.20;99.90;;;;;;5035550;28;20476;-60
2023/09/13 09:09:20;;;;;;;43.43;41.13;;;25.20;99.90;;;;;;5035691;28;20472;-57
2023/09/13 09:11:52;;;;;;;44.73;42.30;;;25.20;99.90;;;;;;5035078;28;20861;-58
2023/09/13 09:14:22;;;;;;;43.20;41.00;;;25.20;99.90;;;;;;5035330;28;20842;-59
2023/09/13 09:16:52;;;;;;;44.77;42.27;;;25.20;99.90;;;;;;5035682;28;20464;-57
2023/09/13 09:19:19;;;;;;;44.97;42.57;;;25.20;99.90;;;;;;5035365;28;20469;-58
2023/09/13 09:21:46;;;;;;;45.57;43.40;;;25.20;99.90;;;;;;5035366;28;20444;-60
2023/09/13 09:24:13;;;;;;;44.27;41.87;;;25.10;99.90;;;;;;5035122;28;20592;-58
2023/09/13 09:26:40;;;;;;;43.67;41.20;;;25.10;99.90;;;;;;5035499;28;20473;-56
2023/09/13 09:29:14;;;;;;;45.03;42.67;;;25.10;99.90;;;;;;5035337;28;20488;-59
2023/09/13 09:31:42;;;;;;;45.20;42.90;;;25.10;99.90;;;;;;5035349;28;20472;-59
2023/09/13 09:34:10;;;;;;;43.23;40.83;;;25.10;99.90;;;;;;5034831;28;20562;-60
2023/09/13 09:36:41;;;;;;;43.57;41.17;;;25.10;99.90;;;;;;5035030;28;20955;-57
2023/09/13 09:39:08;;;;;;;42.83;40.63;;;25.10;99.90;;;;;;5035346;28;20473;-55
2023/09/13 09:41:36;;;;;;;47.77;45.33;;;25.10;99.90;;;;;;5035185;28;20476;-56
2023/09/13 09:44:03;;;;;;;43.47;41.07;;;25.10;99.90;;;;;;5035214;28;20883;-60
2023/09/13 09:46:31;;;;;;;43.27;40.93;;;25.10;99.90;;;;;;5034744;28;20472;-58
2023/09/13 09:49:00;;;;;;;41.57;39.37;;;25.10;99.90;;;;;;5035194;28;20472;-56
2023/09/13 09:51:28;;;;;;;41.63;39.37;;;25.10;99.90;;;;;;5035271;28;20469;-57
2023/09/13 09:53:56;;;;;;;40.47;38.37;;;25.10;99.90;;;;;;5026823;28;20485;-58
2023/09/13 09:56:23;;;;;;;42.30;40.17;;;25.10;99.90;;;;;;5034986;28;20488;-60
2023/09/13 09:58:50;;;;;;;42.07;39.67;;;25.10;99.90;;;;;;5034782;28;20473;-57
2023/09/13 10:01:18;;;;;;;43.97;41.57;;;25.10;99.90;;;;;;5034983;28;20469;-59
2023/09/13 10:03:45;;;;;;;43.50;41.20;;;25.20;99.90;;;;;;5034517;28;20462;-58
2023/09/13 10:06:15;;;;;;;43.93;41.60;;;25.20;99.90;;;;;;5034979;28;20450;-57
2023/09/13 10:08:44;;;;;;;44.53;42.23;;;25.20;99.90;;;;;;5034745;28;20944;-59
2023/09/13 10:11:12;;;;;;;45.10;42.80;;;25.20;99.90;;;;;;5034916;28;20876;-59
2023/09/13 10:13:40;;;;;;;42.80;40.70;;;25.20;99.90;;;;;;5033442;28;20516;-60
2023/09/13 10:16:11;;;;;;;43.57;41.17;;;25.20;99.90;;;;;;5034656;28;20473;-60
2023/09/13 10:18:44;;;;;;;43.87;41.67;;;25.20;99.90;;;;;;5034830;28;20453;-56
2023/09/13 10:21:11;;;;;;;44.13;41.93;;;25.20;99.90;;;;;;5034789;28;20487;-57
2023/09/13 10:23:42;;;;;;;47.13;44.63;;;25.20;99.90;;;;;;5034195;28;20499;-56
2023/09/13 10:26:10;;;;;;;42.23;40.13;;;25.20;99.90;;;;;;5034478;28;20469;-59
2023/09/13 10:28:39;;;;;;;41.17;39.20;;;25.20;99.90;;;;;;5034415;28;20451;-59
2023/09/13 10:31:11;;;;;;;43.27;41.17;;;25.20;99.90;;;;;;5034808;28;20503;-57
2023/09/13 10:33:42;;;;;;;42.67;40.37;;;25.20;99.90;;;;;;5034055;28;20519;-57
2023/09/13 10:36:13;;;;;;;45.13;42.90;;;25.20;99.90;;;;;;5034797;28;20477;-59
2023/09/13 10:38:48;;;;;;;44.67;42.47;;;25.20;99.90;;;;;;5034660;28;20567;-55
2023/09/13 10:41:18;;;;;;;44.10;42.00;;;25.20;99.90;;;;;;5034778;28;20437;-58
2023/09/13 10:43:48;;;;;;;43.20;41.03;;;25.20;99.90;;;;;;5034277;28;20485;-54
2023/09/13 10:46:16;;;;;;;42.43;40.43;;;25.20;99.90;;;;;;5034478;28;20456;-56
2023/09/13 10:48:45;;;;;;;40.77;38.63;;;25.20;99.90;;;;;;5034448;28;20477;-55
2023/09/13 10:51:13;;;;;;;40.53;38.50;;;25.20;99.90;;;;;;5034874;28;20458;-56
2023/09/13 10:53:45;;;;;;;42.17;40.00;;;25.20;99.90;;;;;;5034304;28;20481;-57
2023/09/13 10:56:15;;;;;;;40.10;37.70;;;25.20;99.90;;;;;;5034487;28;20456;-57
2023/09/13 10:58:46;;;;;;;42.90;40.73;;;25.20;99.90;;;;;;5034065;28;20476;-58
2023/09/13 11:01:14;;;;;;;42.13;40.17;;;25.20;99.90;;;;;;5034513;28;20451;-57
2023/09/13 11:03:42;;;;;;;42.43;40.43;;;25.10;99.90;;;;;;5034464;28;20465;-55
2023/09/13 11:06:10;;;;;;;43.33;41.33;;;25.10;99.90;;;;;;5034630;28;20459;-58
2023/09/13 11:08:38;;;;;;;42.17;40.27;;;25.10;99.90;;;;;;5034363;28;20480;-55
2023/09/13 11:11:12;;;;;;;40.50;38.50;;;25.10;99.90;;;;;;5034503;28;20473;-59
2023/09/13 11:13:39;;;;;;;41.67;39.87;;;25.00;99.90;;;;;;5034260;28;20464;-54
2023/09/13 11:16:07;;;;;;;40.40;38.63;;;25.00;99.90;;;;;;5034992;28;20473;-57
2023/09/13 11:18:45;;;;;;;41.10;39.40;;;25.00;99.90;;;;;;5034676;28;20509;-58
2023/09/13 11:21:19;;;;;;;41.43;39.63;;;25.00;99.90;;;;;;5035209;28;20472;-55
2023/09/13 11:23:50;;;;;;;42.00;40.10;;;24.90;99.90;;;;;;5034588;28;20497;-54
2023/09/13 11:26:38;;;;;;;41.23;39.27;;;24.90;99.90;;;;;;5034581;28;20520;-58
2023/09/13 11:29:21;;;;;;;41.07;38.97;;;24.90;99.90;;;;;;5027592;28;20473;-55
2023/09/13 11:31:58;;;;;;;41.67;39.47;;;24.90;99.90;;;;;;5032269;28;20836;-59
2023/09/13 11:34:25;;;;;;;43.50;41.27;;;24.80;99.90;;;;;;5031934;28;20481;-59
2023/09/13 11:36:57;;;;;;;43.43;40.83;;;24.80;99.90;;;;;;5031865;28;20484;-59
2023/09/13 11:39:24;;;;;;;42.30;40.20;;;24.80;99.90;;;;;;5031944;28;20484;-59
2023/09/13 11:41:55;;;;;;;42.50;40.40;;;24.70;99.90;;;;;;5031957;28;20449;-57
2023/09/13 11:44:22;;;;;;;39.80;37.80;;;24.80;99.90;;;;;;5031965;28;20878;-57
2023/09/13 11:46:50;;;;;;;41.60;39.70;;;24.80;99.90;;;;;;5032018;28;20476;-59
2023/09/13 11:49:20;;;;;;;40.63;38.67;;;24.80;99.90;;;;;;5031880;28;20449;-60
2023/09/13 11:51:52;;;;;;;40.20;38.33;;;24.80;99.90;;;;;;5031913;28;20810;-57
2023/09/13 11:54:20;;;;;;;42.43;40.43;;;24.70;99.90;;;;;;5031740;28;20802;-56
2023/09/13 11:56:49;;;;;;;37.30;35.57;;;24.70;99.90;;;;;;5031912;28;20535;-56
2023/09/13 11:59:18;;;;;;;40.40;38.30;;;24.70;99.90;;;;;;5032042;28;20808;-58
2023/09/13 12:01:46;;;;;;;38.07;36.33;;;24.80;99.90;;;;;;5031844;28;20903;-58
2023/09/13 12:04:13;;;;;;;38.70;36.70;;;24.70;99.90;;;;;;5031557;28;21006;-56
2023/09/13 12:06:44;;;;;;;38.70;36.90;;;24.70;99.90;;;;;;5031339;28;20442;-57
2023/09/13 12:09:12;;;;;;;42.00;40.00;;;24.70;99.90;;;;;;5031578;28;20443;-58
2023/09/13 12:11:39;;;;;;;37.47;35.77;;;24.70;99.90;;;;;;5030898;28;20511;-66
2023/09/13 12:14:09;;;;;;;39.70;38.00;;;24.80;99.90;;;;;;5029891;28;20485;-58
2023/09/13 12:16:38;;;;;;;38.63;36.70;;;24.80;99.90;;;;;;5028212;28;20457;-55
2023/09/13 12:19:06;;;;;;;38.90;37.10;;;24.80;99.90;;;;;;5031970;28;20469;-61
2023/09/13 12:21:35;;;;;;;37.30;35.70;;;24.90;99.90;;;;;;5032143;28;20445;-57
2023/09/13 12:24:02;;;;;;;39.30;37.40;;;24.90;99.90;;;;;;5023684;28;20480;-60
2023/09/13 12:26:29;;;;;;;40.03;38.30;;;24.90;99.90;;;;;;5031494;28;20492;-60
2023/09/13 12:29:02;;;;;;;39.83;38.03;;;24.90;99.90;;;;;;5031261;28;20471;-58
2023/09/13 12:31:31;;;;;;;42.60;40.60;;;24.90;99.90;;;;;;5031282;28;22109;-61
2023/09/13 12:34:01;;;;;;;40.00;38.00;;;24.80;99.90;;;;;;5030376;28;20542;-59